createdAt,value
2023-04-04T00:01:12.771Z,-0.28
2023-04-04T00:06:16.661Z,-0.38
2023-04-04T00:11:19.273Z,-0.44
2023-04-04T00:16:22.326Z,-0.52
2023-04-04T00:21:27.531Z,-0.65
2023-04-04T00:26:30.806Z,-0.72
2023-04-04T00:31:34.690Z,-0.77
2023-04-04T00:36:38.669Z,-0.90
2023-04-04T00:41:41.842Z,-1.02
2023-04-04T00:46:44.431Z,-1.11
2023-04-04T00:51:48.305Z,-1.17
2023-04-04T00:56:55.078Z,-1.17
2023-04-04T01:01:58.386Z,-1.22
2023-04-04T01:07:04.369Z,-1.32
2023-04-04T01:12:07.628Z,-1.35
2023-04-04T01:17:10.282Z,-1.36
2023-04-04T01:22:15.884Z,-1.36
2023-04-04T01:27:19.801Z,-1.40
2023-04-04T01:32:30.182Z,-1.41
2023-04-04T01:37:38.048Z,-1.52
2023-04-04T01:42:45.262Z,-1.53
2023-04-04T01:47:47.933Z,-1.60
2023-04-04T01:52:51.020Z,-1.63
2023-04-04T01:57:55.029Z,-1.70
2023-04-04T02:02:57.606Z,-1.78
2023-04-04T02:08:00.517Z,-1.79
2023-04-04T02:13:04.481Z,-1.77
2023-04-04T02:18:07.205Z,-1.88
2023-04-04T02:23:09.769Z,-1.85
2023-04-04T02:28:13.645Z,-1.81
2023-04-04T02:33:17.313Z,-1.80
2023-04-04T02:38:19.825Z,-1.88
2023-04-04T02:43:23.751Z,-2.02
2023-04-04T02:48:27.431Z,-2.06
2023-04-04T02:53:29.895Z,-2.12
2023-04-04T02:58:34.023Z,-2.16
2023-04-04T03:03:36.745Z,-2.17
2023-04-04T03:08:39.490Z,-2.21
2023-04-04T03:13:43.825Z,-2.26
2023-04-04T03:18:46.920Z,-2.35
2023-04-04T03:23:49.466Z,-2.52
2023-04-04T03:28:53.376Z,-2.68
2023-04-04T03:33:56.013Z,-2.81
2023-04-04T03:38:58.561Z,-2.90
2023-04-04T03:44:04.640Z,-2.98
2023-04-04T03:49:07.222Z,-3.13
2023-04-04T03:54:09.774Z,-3.22
2023-04-04T03:59:14.101Z,-3.30
2023-04-04T04:04:16.775Z,-3.34
2023-04-04T04:09:19.340Z,-3.41
2023-04-04T04:14:23.264Z,-3.53
2023-04-04T04:19:25.843Z,-3.57
2023-04-04T04:24:28.438Z,-3.65
2023-04-04T04:29:32.396Z,-3.63
2023-04-04T04:34:34.981Z,-3.69
2023-04-04T04:39:37.599Z,-3.72
2023-04-04T04:44:41.487Z,-3.74
2023-04-04T04:49:46.574Z,-3.68
2023-04-04T04:54:50.923Z,-3.67
2023-04-04T04:59:54.795Z,-3.66
2023-04-04T05:04:57.616Z,-3.65
2023-04-04T05:10:00.193Z,-3.63
2023-04-04T05:15:04.394Z,-3.52
2023-04-04T05:20:08.642Z,-3.39
2023-04-04T05:25:11.212Z,-3.38
2023-04-04T05:30:15.853Z,-3.20
2023-04-04T05:35:18.502Z,-2.96
2023-04-04T05:40:21.357Z,-2.72
2023-04-04T05:45:25.862Z,-2.47
2023-04-04T05:50:28.485Z,-2.18
2023-04-04T05:55:31.517Z,-1.91
2023-04-04T06:00:35.862Z,-1.71
2023-04-04T06:05:38.477Z,-1.46
2023-04-04T06:10:41.715Z,-1.25
2023-04-04T06:15:45.976Z,-0.90
2023-04-04T06:20:48.555Z,-0.48
2023-04-04T06:25:51.509Z,0.00
2023-04-04T06:30:56.203Z,0.60
2023-04-04T06:35:58.789Z,2.68
2023-04-04T06:41:01.371Z,4.83
2023-04-04T06:46:06.637Z,6.22
2023-04-04T06:51:11.245Z,6.70
2023-04-04T06:56:13.909Z,6.69
2023-04-04T07:01:17.850Z,5.99
2023-04-04T07:06:22.995Z,6.47
2023-04-04T07:11:27.211Z,7.25
2023-04-04T07:16:31.642Z,7.47
2023-04-04T07:21:34.787Z,8.17
2023-04-04T07:26:37.377Z,8.56
2023-04-04T07:31:41.263Z,9.30
2023-04-04T07:36:43.969Z,9.80
2023-04-04T07:41:46.704Z,10.39
2023-04-04T07:47:02.426Z,11.77
2023-04-04T07:52:11.932Z,12.20
2023-04-04T07:57:14.478Z,12.55
2023-04-04T08:02:18.418Z,12.22
2023-04-04T08:07:21.070Z,12.49
2023-04-04T08:12:24.045Z,13.17
2023-04-04T08:17:28.206Z,12.92
2023-04-04T08:22:31.043Z,12.77
2023-04-04T08:27:34.018Z,13.46
2023-04-04T08:32:38.956Z,13.90
2023-04-04T08:37:45.743Z,14.03
2023-04-04T08:42:51.634Z,14.47
2023-04-04T08:47:59.034Z,15.40
2023-04-04T08:53:04.734Z,14.65
2023-04-04T08:58:07.394Z,14.33
2023-04-04T09:03:21.718Z,15.30
2023-04-04T09:08:24.966Z,15.19
2023-04-04T09:13:27.579Z,14.77
2023-04-04T09:18:31.957Z,14.61
2023-04-04T09:23:34.579Z,14.97
2023-04-04T09:28:37.114Z,15.25
2023-04-04T09:33:41.504Z,15.07
2023-04-04T09:38:44.967Z,15.25
2023-04-04T09:43:48.436Z,14.88
2023-04-04T09:48:53.085Z,15.41
2023-04-04T09:53:55.798Z,15.90
2023-04-04T09:59:03.807Z,16.13
2023-04-04T10:04:10.061Z,14.76
2023-04-04T10:09:13.448Z,14.76
2023-04-04T10:14:16.600Z,14.73
2023-04-04T10:19:20.695Z,15.46
2023-04-04T10:24:23.363Z,15.53
2023-04-04T10:29:26.359Z,15.33
2023-04-04T10:34:39.432Z,14.84
2023-04-04T10:39:47.401Z,14.41
2023-04-04T10:44:50.156Z,14.83
2023-04-04T10:49:54.065Z,14.55
2023-04-04T10:54:59.828Z,14.73
2023-04-04T11:00:06.564Z,15.25
2023-04-04T11:05:16.266Z,14.40
2023-04-04T11:10:24.041Z,14.26
2023-04-04T11:15:27.431Z,13.97
2023-04-04T11:20:39.696Z,13.89
2023-04-04T11:25:50.736Z,14.58
2023-04-04T11:31:25.175Z,15.46
2023-04-04T11:36:56.065Z,15.33
2023-04-04T11:42:04.542Z,14.41
2023-04-04T11:47:12.646Z,14.13
2023-04-04T11:52:17.959Z,14.86
2023-04-04T11:57:22.430Z,14.22
2023-04-04T12:02:29.706Z,14.51
2023-04-04T12:07:35.296Z,14.13
2023-04-04T12:12:39.036Z,14.48
2023-04-04T12:17:43.375Z,14.55
2023-04-04T12:22:49.775Z,14.00
2023-04-04T12:27:53.689Z,14.57
2023-04-04T12:32:56.629Z,14.28
2023-04-04T12:38:02.634Z,13.61
2023-04-04T12:43:07.252Z,14.85
2023-04-04T12:48:14.253Z,14.17
2023-04-04T12:53:29.182Z,14.58
2023-04-04T12:58:34.292Z,14.79
2023-04-04T13:03:39.996Z,14.76
2023-04-04T13:08:54.185Z,14.82
2023-04-04T13:14:04.107Z,14.14
2023-04-04T13:19:07.166Z,14.57
2023-04-04T13:24:12.090Z,14.07
2023-04-04T13:29:15.751Z,14.13
2023-04-04T13:34:18.341Z,14.95
2023-04-04T13:39:22.291Z,15.12
2023-04-04T13:44:26.148Z,14.82
2023-04-04T13:49:30.060Z,14.42
2023-04-04T13:54:33.991Z,14.76
2023-04-04T13:59:36.645Z,14.21
2023-04-04T14:04:39.299Z,15.42
2023-04-04T14:09:43.405Z,15.59
2023-04-04T14:14:46.041Z,15.63
2023-04-04T14:19:48.670Z,15.91
2023-04-04T14:24:52.569Z,16.30
2023-04-04T14:29:55.158Z,15.63
2023-04-04T14:34:57.771Z,15.49
2023-04-04T14:40:02.105Z,15.80
2023-04-04T14:45:07.793Z,15.05
2023-04-04T14:50:11.250Z,14.12
2023-04-04T14:55:15.630Z,13.20
2023-04-04T15:00:20.638Z,13.59
2023-04-04T15:05:23.242Z,13.71
2023-04-04T15:10:27.159Z,14.26
2023-04-04T15:15:29.994Z,13.83
2023-04-04T15:20:32.607Z,12.89
2023-04-04T15:25:36.967Z,12.40
2023-04-04T15:30:40.073Z,12.15
2023-04-04T15:35:42.665Z,12.37
2023-04-04T15:40:46.634Z,12.94
2023-04-04T15:45:49.264Z,13.23
2023-04-04T15:50:51.990Z,13.66
2023-04-04T15:55:56.020Z,13.59
2023-04-04T16:00:58.731Z,12.73
2023-04-04T16:06:01.662Z,12.56
2023-04-04T16:11:05.837Z,12.78
2023-04-04T16:16:08.478Z,12.71
2023-04-04T16:21:11.095Z,12.14
2023-04-04T16:26:15.180Z,11.51
2023-04-04T16:31:18.100Z,12.71
2023-04-04T16:36:21.134Z,12.72
2023-04-04T16:41:25.159Z,11.84
2023-04-04T16:46:28.246Z,11.27
2023-04-04T16:51:32.073Z,10.71
2023-04-04T16:56:36.316Z,10.11
2023-04-04T17:01:39.112Z,9.59
2023-04-04T17:06:41.704Z,9.20
2023-04-04T17:11:47.036Z,8.93
2023-04-04T17:16:50.185Z,8.71
2023-04-04T17:21:52.831Z,8.53
2023-04-04T17:26:57.916Z,8.29
2023-04-04T17:32:00.686Z,8.11
2023-04-04T17:37:03.359Z,8.01
2023-04-04T17:42:07.412Z,7.83
2023-04-04T17:47:10.056Z,7.68
2023-04-04T17:52:14.225Z,7.57
2023-04-04T17:57:18.214Z,7.44
2023-04-04T18:02:21.160Z,7.28
2023-04-04T18:07:23.795Z,7.15
2023-04-04T18:12:30.222Z,7.03
2023-04-04T18:17:33.409Z,6.90
2023-04-04T18:22:36.473Z,6.74
2023-04-04T18:27:40.429Z,6.56
2023-04-04T18:32:43.099Z,6.37
2023-04-04T18:37:45.713Z,6.23
2023-04-04T18:42:50.068Z,6.17
2023-04-04T18:47:52.673Z,6.06
2023-04-04T18:52:56.882Z,5.94
2023-04-04T18:58:00.812Z,5.82
2023-04-04T19:03:03.459Z,5.75
2023-04-04T19:08:08.703Z,5.71
2023-04-04T19:13:12.601Z,5.61
2023-04-04T19:18:15.573Z,5.47
2023-04-04T19:23:18.206Z,5.40
2023-04-04T19:28:22.163Z,5.32
2023-04-04T19:33:27.334Z,5.19
2023-04-04T19:38:32.574Z,5.04
2023-04-04T19:43:37.175Z,4.92
2023-04-04T19:48:45.046Z,4.83
2023-04-04T19:53:50.356Z,4.74
2023-04-04T19:58:56.570Z,4.67
2023-04-04T20:04:07.006Z,4.63
2023-04-04T20:09:14.081Z,4.44
2023-04-04T20:14:21.577Z,4.17
2023-04-04T20:19:28.556Z,4.00
2023-04-04T20:24:31.534Z,3.81
2023-04-04T20:29:37.464Z,3.77
2023-04-04T20:34:45.376Z,3.71
2023-04-04T20:39:49.798Z,3.58
2023-04-04T20:44:54.328Z,3.51
2023-04-04T20:49:56.973Z,3.47
2023-04-04T20:54:59.568Z,3.37
2023-04-04T21:00:27.701Z,3.23
2023-04-04T21:05:31.482Z,2.88
2023-04-04T21:10:49.252Z,2.63
2023-04-04T21:15:56.176Z,2.36
2023-04-04T21:21:12.711Z,2.18
2023-04-04T21:26:34.988Z,1.91
2023-04-04T21:31:40.946Z,1.67
2023-04-04T21:36:44.625Z,1.49
2023-04-04T21:41:47.786Z,1.39
2023-04-04T21:46:52.249Z,1.32
2023-04-04T21:51:54.817Z,1.20
2023-04-04T21:56:57.480Z,1.07
2023-04-04T22:02:01.459Z,0.91
2023-04-04T22:07:04.049Z,0.86
2023-04-04T22:12:14.697Z,0.82
2023-04-04T22:17:23.148Z,0.76
2023-04-04T22:22:29.344Z,0.65
2023-04-04T22:27:32.616Z,0.52
2023-04-04T22:32:39.128Z,0.37
2023-04-04T22:37:45.937Z,0.24
2023-04-04T22:42:48.573Z,0.16
2023-04-04T22:47:52.640Z,0.12
2023-04-04T22:52:55.436Z,0.09
2023-04-04T22:57:58.170Z,-0.06
2023-04-04T23:03:02.320Z,-0.17
2023-04-04T23:08:06.362Z,-0.17
2023-04-04T23:13:08.966Z,-0.24
2023-04-04T23:18:13.451Z,-0.14
2023-04-04T23:23:16.078Z,-0.10
2023-04-04T23:28:18.806Z,-0.11
2023-04-04T23:33:22.752Z,-0.12
2023-04-04T23:38:25.366Z,-0.15
2023-04-04T23:43:28.381Z,-0.20
2023-04-04T23:48:32.539Z,-0.21
2023-04-04T23:53:35.240Z,-0.28
2023-04-04T23:58:38.214Z,-0.42
